Thunder radar more information blitzortung!


Radar de pluja more information rain snow radar


Visita la nostra xarxa de llocs de meteo:

Template documentation
and downloads

And another site



No particular awareness of the weather is required.    There are no Weather-warnings

Pagina Historial Weather Underground text

Diari Resum Agost 13, 2017 Unitats:  Mètric    Imperial   Tant
« Previous Dia
SegĂźent Dia »
Diari Setmana Mensual Anual Personalitzada
  Maxima: Minima: Media:
Temperatura: -17.8 °C -8.9 °C -4.1 °C
Punt de rosada: -17.8 °C -11.8 °C -9.8 °C
Humitat: Humidity % 39 % 54 %
Wind Speed: 0 km/h 0 km/h 10.3 km/h
RĂ fegues de vent: 0 km/h - -
Vent:- - SSW
Pression baro: 0 hPa 34361.1 hPa -
Precipitacions: 0 mm    
Historical Graphs
 
 
Dades de taula per Agost 13, 2017
Temps Temperatura Punt de rosada Pression baro Vent Wind Speed RĂ fegues de vent Humitat Rainfall Rate (Hourly)
-17.8 °C -17.8 °C 0 hPa Calm     Humidity % 0 mm
00:01 -6.4 °C -11.1 °C 34533.8 hPa Calm     59 % 0 mm
00:05 -8.1 °C -11.2 °C 34462.7 hPa WNW 2.6 km/h 2.6 km/h 70 % 0 mm
00:06 -6.4 °C -11.1 °C 34533.8 hPa Calm     59 % 0 mm
00:11 -6.4 °C -11.1 °C 34533.8 hPa Calm     59 % 0 mm
00:15 -8.1 °C -11.2 °C 34462.7 hPa Calm   2.6 km/h 70 % 0 mm
00:16 -6.4 °C -10.9 °C 34533.8 hPa Calm     60 % 0 mm
00:21 -6.5 °C -11.1 °C 34533.8 hPa WNW 2.3 km/h   59 % 0 mm
00:25 -8.3 °C -11.4 °C 34462.7 hPa Calm   2.6 km/h 69 % 0 mm
00:26 -6.5 °C -10.9 °C 34533.8 hPa Calm     60 % 0 mm
00:31 -6.5 °C -10.9 °C 34533.8 hPa Calm     60 % 0 mm
00:35 -8.3 °C -11.4 °C 34462.7 hPa Calm   2.6 km/h 70 % 0 mm
00:36 -6.6 °C -11 °C 34533.8 hPa Calm     60 % 0 mm
00:45 -8.5 °C -11.4 °C 34462.7 hPa Calm     71 % 0 mm
00:55 -8.6 °C -11.6 °C 34428.8 hPa NE 2.6 km/h 2.6 km/h 70 % 0 mm
01:05 -8.6 °C -11.7 °C 34462.7 hPa Calm   2.6 km/h 70 % 0 mm
01:15 -8.6 °C -11.6 °C 34462.7 hPa Calm   2.6 km/h 71 % 0 mm
01:25 -8.6 °C -11.6 °C 34428.8 hPa Calm     71 % 0 mm
01:35 -8.7 °C -11.6 °C 34462.7 hPa Calm   2.6 km/h 71 % 0 mm
01:45 -8.8 °C -11.8 °C 34462.7 hPa WSW 2.6 km/h 5.1 km/h 70 % 0 mm
01:55 -8.9 °C -11.8 °C 34462.7 hPa Calm   2.6 km/h 71 % 0 mm
02:05 -8.9 °C -11.8 °C 34462.7 hPa WSW 5.1 km/h 5.1 km/h 71 % 0 mm
02:15 -8.9 °C -11.7 °C 34462.7 hPa Calm   2.6 km/h 72 % 0 mm
02:25 -8.9 °C -11.8 °C 34462.7 hPa Calm     72 % 0 mm
02:35 -8.9 °C -11.7 °C 34462.7 hPa WSW 2.6 km/h 5.1 km/h 72 % 0 mm
02:45 -8.6 °C -11.4 °C 34462.7 hPa Calm   2.6 km/h 72 % 0 mm
02:55 -8.4 °C -11.3 °C 34462.7 hPa SSW 2.6 km/h 5.1 km/h 71 % 0 mm
03:05 -7.8 °C -11.1 °C 34496.6 hPa Calm     69 % 0 mm
03:15 -7.9 °C -11.2 °C 34496.6 hPa SW 2.6 km/h 5.1 km/h 68 % 0 mm
03:25 -8.1 °C -11.5 °C 34462.7 hPa SW 2.6 km/h 5.1 km/h 67 % 0 mm
03:35 -7.8 °C -11.1 °C 34496.6 hPa SW 2.6 km/h 5.1 km/h 68 % 0 mm
03:45 -7.6 °C -11.1 °C 34496.6 hPa SW 2.6 km/h 5.1 km/h 67 % 0 mm
03:55 -7.2 °C -10.9 °C 34496.6 hPa SW 5.1 km/h 5.1 km/h 65 % 0 mm
04:05 -7 °C -10.7 °C 34496.6 hPa SW 5.1 km/h 5.1 km/h 65 % 0 mm
04:15 -6.4 °C -10.4 °C 34496.6 hPa SSW 2.6 km/h 2.6 km/h 64 % 0 mm
04:25 -6 °C -10.2 °C 34496.6 hPa South 2.6 km/h 5.1 km/h 62 % 0 mm
04:35 -5.9 °C -10.2 °C 34496.6 hPa SW 2.6 km/h 5.1 km/h 61 % 0 mm
04:45 -5.4 °C -10.1 °C 34496.6 hPa NW 2.6 km/h 5.1 km/h 59 % 0 mm
04:55 -5.2 °C -10 °C 34496.6 hPa NNE 5.1 km/h 12.9 km/h 58 % 0 mm
05:05 -5.1 °C -10.1 °C 34496.6 hPa ENE 5.1 km/h 7.7 km/h 57 % 0 mm
05:15 -4.8 °C -9.8 °C 34496.6 hPa Calm   7.7 km/h 57 % 0 mm
05:25 -4.4 °C -9.8 °C 34496.6 hPa ESE 2.6 km/h 5.1 km/h 55 % 0 mm
05:35 -4.1 °C -9.6 °C 34496.6 hPa ESE 2.6 km/h 7.7 km/h 54 % 0 mm
05:45 -3.8 °C -9.6 °C 34496.6 hPa NE 2.6 km/h 7.7 km/h 52 % 0 mm
10:46 -4.1 °C -9.9 °C 34496.6 hPa North 9 km/h 9 km/h 52 % 0 mm
10:47 -4.1 °C -9.9 °C 34496.6 hPa North 9 km/h 9 km/h 52 % 0 mm
10:52 -3.9 °C -9.9 °C 34496.6 hPa ESE 6.3 km/h 6.3 km/h 51 % 0 mm
10:57 -3.7 °C -9.9 °C 34496.6 hPa WSW 8.5 km/h 8.5 km/h 50 % 0 mm
11:02 -3.7 °C -9.9 °C 34496.6 hPa SSW 6 km/h 6 km/h 50 % 0 mm
11:07 -3.3 °C -9.6 °C 34496.6 hPa ENE 6 km/h 6 km/h 50 % 0 mm
11:12 -3.6 °C -10.1 °C 34496.6 hPa ESE 9.8 km/h 9.8 km/h 48 % 0 mm
11:17 -3.4 °C -9.8 °C 34496.6 hPa ENE 11.9 km/h 11.9 km/h 49 % 0 mm
11:22 -3.3 °C -9.8 °C 34496.6 hPa East 6.3 km/h 6.3 km/h 49 % 0 mm
11:27 -2.9 °C -9.4 °C 34496.6 hPa WSW 6 km/h 6 km/h 49 % 0 mm
11:32 -2.9 °C -9.5 °C 34496.6 hPa East 6.3 km/h 6.3 km/h 48 % 0 mm
11:37 -2.7 °C -9.6 °C 34496.6 hPa SSE 3.1 km/h 3.1 km/h 47 % 0 mm
11:42 -2.4 °C -9.6 °C 34496.6 hPa SSE 9 km/h 9 km/h 45 % 0 mm
11:47 -2.3 °C -9.3 °C 34496.6 hPa SE 6 km/h 6 km/h 46 % 0 mm
11:52 -2.2 °C -9.2 °C 34496.6 hPa ESE 6.8 km/h 6.8 km/h 46 % 0 mm
11:57 -2.3 °C -9.5 °C 34496.6 hPa SE 9 km/h 9 km/h 45 % 0 mm
12:02 -2.6 °C -9.6 °C 34496.6 hPa WSW 9 km/h 9 km/h 46 % 0 mm
12:07 -2.5 °C -9.7 °C 34496.6 hPa SW 11.9 km/h 11.9 km/h 45 % 0 mm
12:12 -2.2 °C -9.4 °C 34496.6 hPa WSW 11.1 km/h 11.1 km/h 45 % 0 mm
12:17 -2.1 °C -9.3 °C 34496.6 hPa East 11.9 km/h 11.9 km/h 45 % 0 mm
12:22 -2.3 °C -9.7 °C 34496.6 hPa East 9 km/h 9.3 km/h 44 % 0 mm
12:27 -2.1 °C -9.3 °C 34496.6 hPa ESE 9 km/h 9 km/h 45 % 0 mm
12:32 -2.1 °C -9.3 °C 34496.6 hPa West 11.9 km/h 11.9 km/h 45 % 0 mm
12:37 -1.9 °C -9.2 °C 34496.6 hPa WSW 6 km/h 6.3 km/h 45 % 0 mm
12:42 -1.4 °C -9.2 °C 34496.6 hPa South 9 km/h 9 km/h 43 % 0 mm
12:47 -1.7 °C -9 °C 34462.7 hPa ESE 11.9 km/h 11.9 km/h 45 % 0 mm
12:52 -1.6 °C -9.1 °C 34462.7 hPa South 8.5 km/h 8.5 km/h 44 % 0 mm
12:57 -1.6 °C -8.8 °C 34462.7 hPa ESE 17.9 km/h 17.9 km/h 45 % 0 mm
13:02 -2.1 °C -9.2 °C 34428.8 hPa ESE 15 km/h 15 km/h 46 % 0 mm
13:07 -2 °C -8.9 °C 34428.8 hPa ENE 15 km/h 15 km/h 47 % 0 mm
13:12 -2.3 °C -9.2 °C 34428.8 hPa ENE 23.8 km/h 23.8 km/h 47 % 0 mm
13:17 -1.9 °C -8.7 °C 34462.7 hPa ESE 16.1 km/h 16.1 km/h 48 % 0 mm
13:22 -2.1 °C -8.8 °C 34462.7 hPa East 17.9 km/h 18.3 km/h 48 % 0 mm
13:27 -2.3 °C -8.8 °C 34462.7 hPa SSE 20.9 km/h 20.9 km/h 49 % 0 mm
13:32 -2.4 °C -8.8 °C 34462.7 hPa ESE 17.9 km/h 17.9 km/h 50 % 0 mm
13:37 -2.6 °C -8.9 °C 34462.7 hPa East 20.9 km/h 20.9 km/h 50 % 0 mm
13:42 -2.7 °C -8.8 °C 34462.7 hPa ESE 23.8 km/h 23.8 km/h 51 % 0 mm
13:47 -2.7 °C -8.8 °C 34428.8 hPa ESE 20.9 km/h 20.9 km/h 51 % 0 mm
13:52 -2.4 °C -8.5 °C 34428.8 hPa East 17.9 km/h 17.9 km/h 51 % 0 mm
13:57 -2.4 °C -8.5 °C 34428.8 hPa ESE 38.8 km/h 38.8 km/h 51 % 0 mm
14:02 -2.6 °C -8.9 °C 34462.7 hPa ESE 26.9 km/h 26.9 km/h 50 % 0 mm
14:07 -2.6 °C -8.7 °C 34462.7 hPa ENE 15.6 km/h 15.6 km/h 51 % 0 mm
14:12 -2.6 °C -8.7 °C 34462.7 hPa ESE 20.9 km/h 20.9 km/h 51 % 0 mm
14:17 -2.7 °C -8.8 °C 34462.7 hPa NNE 20.9 km/h 20.9 km/h 51 % 0 mm
14:22 -2.7 °C -8.8 °C 34462.7 hPa ESE 23.8 km/h 23.8 km/h 51 % 0 mm
14:27 -2.7 °C -8.8 °C 34462.7 hPa SE 16.1 km/h 16.1 km/h 51 % 0 mm
14:32 -2.7 °C -8.8 °C 34462.7 hPa East 15 km/h 15 km/h 51 % 0 mm
14:37 -2.4 °C -8.6 °C 34462.7 hPa ESE 26.9 km/h 26.9 km/h 51 % 0 mm
14:42 -2.1 °C -8.4 °C 34462.7 hPa SE 9 km/h 9 km/h 50 % 0 mm
14:47 -1.4 °C -8.5 °C 34462.7 hPa SSE 11.9 km/h 11.9 km/h 46 % 0 mm
14:52 -1.2 °C -8.6 °C 34462.7 hPa SW 20.9 km/h 20.9 km/h 45 % 0 mm
14:57 -1.2 °C -8.8 °C 34462.7 hPa SW 32.8 km/h 32.8 km/h 44 % 0 mm
15:02 -1.1 °C -8.8 °C 34462.7 hPa SW 26.9 km/h 26.9 km/h 43 % 0 mm
15:07 -1.2 °C -9.2 °C 34462.7 hPa SW 12.7 km/h 12.7 km/h 42 % 0 mm
15:12 -0.8 °C -9 °C 34462.7 hPa SW 9 km/h 9 km/h 41 % 0 mm
15:17 -1.1 °C -9.2 °C 34462.7 hPa WSW 23.8 km/h 23.8 km/h 41 % 0 mm
15:22 -1.1 °C -9.4 °C 34462.7 hPa SW 11.9 km/h 11.9 km/h 40 % 0 mm
15:27 -1.2 °C -9.6 °C 34462.7 hPa SSW 23.8 km/h 23.8 km/h 40 % 0 mm
15:32 -1.2 °C -9.6 °C 34428.8 hPa WSW 15 km/h 15 km/h 40 % 0 mm
15:37 -0.7 °C -9.1 °C 34428.8 hPa SE 6.8 km/h 6.8 km/h 40 % 0 mm
15:42 -0.7 °C -9.1 °C 34428.8 hPa SW 20.9 km/h 20.9 km/h 40 % 0 mm
15:47 -0.6 °C -9.1 °C 34428.8 hPa SSW 20.9 km/h 20.9 km/h 40 % 0 mm
15:52 -0.8 °C -9.2 °C 34428.8 hPa SSW 23.8 km/h 23.8 km/h 40 % 0 mm
15:57 -1 °C -9.4 °C 34428.8 hPa South 11.9 km/h 11.9 km/h 40 % 0 mm
16:02 -1 °C -9.4 °C 34428.8 hPa West 17.9 km/h 17.9 km/h 40 % 0 mm
16:07 -0.9 °C -9.3 °C 34428.8 hPa WSW 23.8 km/h 23.8 km/h 40 % 0 mm
16:12 -0.9 °C -9.3 °C 34428.8 hPa SW 19.2 km/h 19.2 km/h 40 % 0 mm
16:17 -1.1 °C -9.7 °C 34428.8 hPa WSW 26.9 km/h 26.9 km/h 39 % 0 mm
16:22 -1.1 °C -9.7 °C 34428.8 hPa SW 23.8 km/h 23.8 km/h 39 % 0 mm
16:27 -1 °C -9.6 °C 34428.8 hPa West 23.8 km/h 23.8 km/h 39 % 0 mm
16:32 -1 °C -9.6 °C 34428.8 hPa SW 23.8 km/h 23.8 km/h 39 % 0 mm
16:37 -1.1 °C -9.7 °C 34428.8 hPa SW 17.9 km/h 17.9 km/h 39 % 0 mm
16:42 -1.3 °C -9.8 °C 34428.8 hPa SSW 23.8 km/h 23.8 km/h 39 % 0 mm
16:47 -1.2 °C -9.8 °C 34428.8 hPa SSW 20.9 km/h 20.9 km/h 39 % 0 mm
16:52 -1 °C -9.6 °C 34428.8 hPa SW 17.9 km/h 17.9 km/h 39 % 0 mm
16:57 -1.1 °C -9.7 °C 34428.8 hPa SW 15.3 km/h 15.3 km/h 39 % 0 mm
16:59 -1.1 °C -9.7 °C 34395 hPa WNW 15.3 km/h 15.3 km/h 39 % 0 mm
17:04 -1.2 °C -9.8 °C 34395 hPa SW 15 km/h 15 km/h 39 % 0 mm
17:09 -1.2 °C -9.8 °C 34395 hPa WSW 17.9 km/h 17.9 km/h 39 % 0 mm
17:14 -1.3 °C -9.9 °C 34395 hPa WSW 23.8 km/h 23.8 km/h 39 % 0 mm
17:19 -1.4 °C -9.8 °C 34395 hPa SW 20.9 km/h 20.9 km/h 40 % 0 mm
17:24 -1.4 °C -9.8 °C 34395 hPa SSW 17.9 km/h 17.9 km/h 40 % 0 mm
17:29 -1.4 °C -9.7 °C 34395 hPa SW 23.8 km/h 23.8 km/h 40 % 0 mm
17:34 -1.3 °C -9.5 °C 34395 hPa WSW 12.7 km/h 12.7 km/h 41 % 0 mm
17:39 -1.3 °C -9.4 °C 34395 hPa SW 9.8 km/h 9.8 km/h 41 % 0 mm
17:44 -1.4 °C -9.5 °C 34395 hPa SW 17.9 km/h 17.9 km/h 41 % 0 mm
17:49 -1.5 °C -9.6 °C 34395 hPa WSW 11.9 km/h 11.9 km/h 41 % 0 mm
17:54 -1.5 °C -9.6 °C 34395 hPa SW 20.9 km/h 20.9 km/h 41 % 0 mm
17:59 -1.6 °C -9.5 °C 34395 hPa SW 11.1 km/h 11.1 km/h 42 % 0 mm
18:04 -1.6 °C -9.5 °C 34395 hPa WSW 20.9 km/h 20.9 km/h 42 % 0 mm
18:09 -1.5 °C -9.4 °C 34395 hPa SW 15 km/h 15 km/h 42 % 0 mm
18:14 -1.7 °C -9.6 °C 34395 hPa South 15 km/h 15 km/h 42 % 0 mm
18:19 -1.9 °C -9.6 °C 34395 hPa SW 23.8 km/h 23.8 km/h 43 % 0 mm
18:24 -1.9 °C -9.6 °C 34395 hPa South 11.9 km/h 11.9 km/h 43 % 0 mm
18:29 -1.7 °C -9.4 °C 34395 hPa WSW 19.2 km/h 19.2 km/h 43 % 0 mm
18:34 -1.9 °C -9.6 °C 34395 hPa WSW 18.3 km/h 18.3 km/h 43 % 0 mm
18:39 -2 °C -9.5 °C 34395 hPa SW 17.9 km/h 17.9 km/h 44 % 0 mm
18:44 -2 °C -9.5 °C 34395 hPa SW 20.9 km/h 20.9 km/h 44 % 0 mm
18:49 -1.9 °C -9.3 °C 34395 hPa SSW 9.3 km/h 9.3 km/h 44 % 0 mm
18:54 -2.2 °C -9.8 °C 34395 hPa SSW 23.8 km/h 23.8 km/h 43 % 0 mm
18:59 -2.2 °C -9.8 °C 34361.1 hPa SW 20.3 km/h 20.3 km/h 43 % 0 mm
19:04 -2.3 °C -9.8 °C 34361.1 hPa SW 15.3 km/h 15.3 km/h 44 % 0 mm
19:09 -2.3 °C -9.7 °C 34361.1 hPa SSW 9 km/h 9 km/h 44 % 0 mm
19:14 -2.3 °C -9.7 °C 34395 hPa SW 15.3 km/h 15.3 km/h 44 % 0 mm
19:15 -5.7 °C -9.1 °C 34462.7 hPa Calm     68 % 0 mm
19:19 -2.4 °C -9.9 °C 34395 hPa WSW 15.3 km/h 15.3 km/h 44 % 0 mm
19:24 -2.4 °C -9.9 °C 34395 hPa SSW 11.9 km/h 11.9 km/h 44 % 0 mm
19:25 -5.8 °C -9.2 °C 34462.7 hPa WSW 2.6 km/h 5.1 km/h 68 % 0 mm
19:29 -2.5 °C -9.7 °C 34395 hPa WSW 9 km/h 9 km/h 45 % 0 mm
19:34 -2.6 °C -9.8 °C 34395 hPa SW 15 km/h 15 km/h 45 % 0 mm
19:35 -5.8 °C -9.1 °C 34462.7 hPa Calm   5.1 km/h 69 % 0 mm
19:39 -2.8 °C -9.9 °C 34395 hPa South 20.9 km/h 20.9 km/h 45 % 0 mm
19:44 -2.8 °C -9.9 °C 34395 hPa SSE 18.3 km/h 18.3 km/h 45 % 0 mm
19:45 -5.9 °C -9.2 °C 34462.7 hPa WSW 2.6 km/h 5.1 km/h 69 % 0 mm
19:49 -2.9 °C -9.9 °C 34395 hPa SW 20.9 km/h 20.9 km/h 46 % 0 mm
19:54 -3 °C -9.9 °C 34395 hPa SW 16.6 km/h 16.6 km/h 46 % 0 mm
19:55 -6 °C -9.3 °C 34462.7 hPa Calm   2.6 km/h 69 % 0 mm
19:59 -3.2 °C -9.9 °C 34395 hPa SSW 9 km/h 9 km/h 47 % 0 mm
20:04 -3.2 °C -10 °C 34395 hPa WSW 15 km/h 15 km/h 47 % 0 mm
20:05 -6.1 °C -9.2 °C 34462.7 hPa Calm     70 % 0 mm
20:09 -3.3 °C -9.9 °C 34395 hPa SSW 15 km/h 15 km/h 48 % 0 mm
20:14 -3.4 °C -9.9 °C 34395 hPa WSW 11.9 km/h 11.9 km/h 48 % 0 mm
20:15 -3.4 °C -9.9 °C 34395 hPa SW 7.6 km/h 7.6 km/h 48 % 0 mm
20:20 -3.5 °C -10.1 °C 34395 hPa SW 9 km/h 9 km/h 48 % 0 mm
20:25 -3.6 °C -10.1 °C 34395 hPa SSW 11.9 km/h 11.9 km/h 48 % 0 mm
20:30 -3.6 °C -10 °C 34361.1 hPa South 9 km/h 9 km/h 49 % 0 mm
20:35 -3.7 °C -10.1 °C 34361.1 hPa SW 9 km/h 9 km/h 49 % 0 mm
20:40 -3.8 °C -10.2 °C 34361.1 hPa SSW 11.9 km/h 11.9 km/h 49 % 0 mm
20:45 -3.9 °C -10.2 °C 34361.1 hPa SW 9 km/h 9 km/h 49 % 0 mm
20:50 -4 °C -10.2 °C 34361.1 hPa SW 11.9 km/h 11.9 km/h 50 % 0 mm
20:55 -4.1 °C -10.1 °C 34361.1 hPa WSW 9 km/h 9 km/h 51 % 0 mm
21:00 -4.2 °C -10.2 °C 34395 hPa SW 11.9 km/h 11.9 km/h 51 % 0 mm
21:05 -4.2 °C -10.1 °C 34395 hPa SW 11.9 km/h 11.9 km/h 52 % 0 mm
21:10 -4.3 °C -10.1 °C 34395 hPa SW 9.8 km/h 9.8 km/h 52 % 0 mm
21:15 -4.4 °C -10.1 °C 34395 hPa SW 14.5 km/h 14.5 km/h 53 % 0 mm
21:20 -4.5 °C -10 °C 34395 hPa SSW 9 km/h 9 km/h 54 % 0 mm
21:25 -4.6 °C -9.9 °C 34395 hPa West 9 km/h 9 km/h 55 % 0 mm
21:30 -4.6 °C -9.9 °C 34395 hPa WSW 6 km/h 6 km/h 55 % 0 mm
21:35 -4.7 °C -9.8 °C 34395 hPa WSW 6 km/h 6 km/h 56 % 0 mm
21:40 -4.8 °C -9.9 °C 34395 hPa WSW 6.3 km/h 6.3 km/h 56 % 0 mm
21:45 -4.8 °C -9.8 °C 34428.8 hPa WSW 6.8 km/h 6.8 km/h 57 % 0 mm
21:50 -4.9 °C -9.9 °C 34428.8 hPa SW 11.9 km/h 11.9 km/h 57 % 0 mm
21:51 -4.9 °C -9.9 °C 34428.8 hPa SW 6 km/h 6 km/h 57 % 0 mm
21:55 -6.8 °C -9.2 °C 34462.7 hPa Calm   5.1 km/h 76 % 0 mm
21:56 -5.1 °C -9.9 °C 34428.8 hPa WSW 9 km/h 9 km/h 58 % 0 mm
22:01 -5.1 °C -9.8 °C 34428.8 hPa WSW 9 km/h 9 km/h 59 % 0 mm
22:05 -6.9 °C -9.3 °C 34462.7 hPa Calm     76 % 0 mm
22:06 -5.1 °C -9.8 °C 34428.8 hPa WSW 9 km/h 9 km/h 59 % 0 mm
22:11 -5.2 °C -9.7 °C 34428.8 hPa SSW 9 km/h 9 km/h 60 % 0 mm
22:15 -6.9 °C -9.3 °C 34462.7 hPa Calm     77 % 0 mm
22:16 -5.2 °C -9.8 °C 34462.7 hPa WSW 7.6 km/h 7.6 km/h 60 % 0 mm
22:21 -5.2 °C -9.6 °C 34462.7 hPa WSW 6.8 km/h 6.8 km/h 61 % 0 mm
22:25 -7 °C -9.3 °C 34462.7 hPa Calm     77 % 0 mm
22:26 -5.2 °C -9.6 °C 34462.7 hPa SW 11.9 km/h 11.9 km/h 61 % 0 mm
22:31 -5.3 °C -9.6 °C 34462.7 hPa SW 11.9 km/h 11.9 km/h 62 % 0 mm
22:35 -7 °C -9.3 °C 34428.8 hPa NE 2.6 km/h 5.1 km/h 77 % 0 mm
22:36 -5.3 °C -9.4 °C 34462.7 hPa SW 6.3 km/h 6.3 km/h 63 % 0 mm
22:41 -5.3 °C -9.4 °C 34462.7 hPa SW 6.8 km/h 6.8 km/h 63 % 0 mm
22:45 -7.1 °C -9.3 °C 34428.8 hPa Calm   2.6 km/h 77 % 0 mm
22:46 -5.4 °C -9.3 °C 34462.7 hPa WSW 6 km/h 6 km/h 64 % 0 mm
22:51 -5.4 °C -9.3 °C 34462.7 hPa SSW 9 km/h 9 km/h 64 % 0 mm
22:55 -7 °C -9.3 °C 34428.8 hPa Calm     77 % 0 mm
22:56 -5.4 °C -9.4 °C 34462.7 hPa WSW 6.8 km/h 6.8 km/h 64 % 0 mm
23:01 -5.5 °C -9.5 °C 34428.8 hPa SW 9 km/h 9 km/h 64 % 0 mm
23:05 -7.1 °C -9.3 °C 34428.8 hPa Calm     77 % 0 mm
23:06 -5.5 °C -9.3 °C 34428.8 hPa SW 6 km/h 6 km/h 65 % 0 mm
23:11 -5.6 °C -9.4 °C 34428.8 hPa SSW 6 km/h 6 km/h 65 % 0 mm
23:15 -7.1 °C -9.3 °C 34428.8 hPa Calm     78 % 0 mm
23:16 -5.6 °C -9.3 °C 34462.7 hPa SW 6 km/h 6 km/h 66 % 0 mm
23:21 -5.6 °C -9.3 °C 34462.7 hPa WSW 6 km/h 6 km/h 66 % 0 mm
23:25 -7.2 °C -9.4 °C 34428.8 hPa Calm   5.1 km/h 78 % 0 mm
23:26 -5.7 °C -9.2 °C 34462.7 hPa SW 3.7 km/h 3.7 km/h 67 % 0 mm
23:31 -5.7 °C -9.3 °C 34462.7 hPa SW 6 km/h 6 km/h 67 % 0 mm
23:35 -7.3 °C -9.2 °C 34428.8 hPa Calm     80 % 0 mm
23:36 -5.7 °C -9.3 °C 34462.7 hPa SW 3.1 km/h 3.1 km/h 67 % 0 mm
23:41 -5.7 °C -9.3 °C 34462.7 hPa SW 6.3 km/h 6.3 km/h 67 % 0 mm
23:45 -7.3 °C -9.3 °C 34428.8 hPa SW 2.6 km/h 2.6 km/h 80 % 0 mm
23:46 -5.7 °C -9.3 °C 34462.7 hPa West 6 km/h 6 km/h 67 % 0 mm
23:51 -5.7 °C -9.3 °C 34462.7 hPa WSW 5.1 km/h 5.1 km/h 67 % 0 mm
23:55 -7.3 °C -9.3 °C 34395 hPa Calm   2.6 km/h 80 % 0 mm
23:56 -5.7 °C -9.3 °C 34462.7 hPa West 6 km/h 6 km/h 67 % 0 mm
Meteo Sesrovires
Elogis d' Weather Underground - 1.75 mb

Guio original per  Jim McMurry - jmcmurry@mwt.net Adaptat per a la plantilla per  Wim van der Kuil - Leuven-Template.eu

Trobareu la nostra informacio del temps tambe a:

Weather Underground

AWEKAS